Time;durP1;ratioP1;P1;durP2;ratioP2;P2;SDS_P1;SDS_P2;PMS_P1;PMS_P2;Temp;Humidity;BMP_temperature;BMP_pressure;BME280_temperature;BME280_humidity;BME280_pressure;Samples;Min_cycle;Max_cycle;Signal;HPM_P1;HPM_P2
2023/01/27 00:01:05;;;;;;;15.17;13.67;;;;;;;-0.63;100.00;100691.50;5013742;28;20750;-73
2023/01/27 00:03:31;;;;;;;15.70;13.63;;;;;;;-0.60;100.00;100685.66;5021807;28;20212;-75
2023/01/27 00:05:59;;;;;;;14.40;12.90;;;;;;;-0.59;100.00;100681.47;5018740;28;20197;-74
2023/01/27 00:08:25;;;;;;;14.57;12.77;;;;;;;-0.60;100.00;100690.75;5019100;28;20727;-73
2023/01/27 00:13:25;;;;;;;15.90;13.13;;;;;;;-0.63;100.00;100685.56;5018298;28;20181;-73
2023/01/27 00:13:36;;;;;;;14.00;12.50;;;;;;;-0.66;100.00;100688.81;5025187;28;20220;-73
2023/01/27 00:16:01;;;;;;;14.30;12.80;;;;;;;-0.68;100.00;100684.50;5019125;28;20682;-73
2023/01/27 00:18:27;;;;;;;14.43;12.73;;;;;;;-0.68;100.00;100685.34;5013169;28;20237;-73
2023/01/27 00:26:20;;;;;;;15.87;14.23;;;;;;;-0.69;100.00;100688.72;5017523;28;20275;-73
2023/01/27 00:28:46;;;;;;;15.53;13.93;;;;;;;-0.69;100.00;100686.19;5013673;28;20192;-72
2023/01/27 00:34:07;;;;;;;14.70;13.20;;;;;;;-0.66;100.00;100685.44;5018522;28;20297;-73
2023/01/27 00:36:34;;;;;;;15.40;13.80;;;;;;;-0.68;100.00;100695.50;5014577;28;20229;-74
2023/01/27 00:38:59;;;;;;;16.83;13.73;;;;;;;-0.69;100.00;100686.19;5022950;28;20192;-73
2023/01/27 00:41:27;;;;;;;15.10;13.53;;;;;;;-0.73;100.00;100689.38;5031605;28;20295;-73
2023/01/27 00:43:53;;;;;;;15.73;14.23;;;;;;;-0.73;100.00;100689.38;5029890;28;20189;-73
2023/01/27 00:46:21;;;;;;;15.27;13.67;;;;;;;-0.74;100.00;100690.19;5032749;28;20190;-72
2023/01/27 00:48:47;;;;;;;15.13;13.57;;;;;;;-0.72;100.00;100682.59;5037355;28;20192;-75
2023/01/27 00:51:12;;;;;;;15.57;13.97;;;;;;;-0.74;100.00;100680.00;5039666;28;20844;-73
2023/01/27 00:53:38;;;;;;;15.50;13.90;;;;;;;-0.77;100.00;100679.88;5036581;28;20615;-75
2023/01/27 00:56:04;;;;;;;14.53;13.13;;;;;;;-0.77;100.00;100682.41;5040447;28;20717;-73
2023/01/27 00:58:30;;;;;;;16.17;14.50;;;;;;;-0.74;100.00;100680.00;5054919;28;20219;-75
2023/01/27 01:00:58;;;;;;;16.37;14.67;;;;;;;-0.75;100.00;100682.47;5051550;28;20295;-72
2023/01/27 01:03:24;;;;;;;16.10;14.40;;;;;;;-0.73;100.00;100676.66;5045742;28;20206;-74
2023/01/27 01:05:49;;;;;;;15.20;13.60;;;;;;;-0.74;100.00;100671.50;5040051;28;20196;-73
2023/01/27 01:08:15;;;;;;;16.10;14.40;;;;;;;-0.73;100.00;100673.25;5039047;28;20635;-73
2023/01/27 01:10:40;;;;;;;16.23;14.17;;;;;;;-0.71;100.00;100674.19;5024648;28;20194;-73
2023/01/27 01:13:10;;;;;;;15.80;14.30;;;;;;;-0.72;100.00;100675.88;5018631;28;20720;-73
2023/01/27 01:15:40;;;;;;;15.03;13.43;;;;;;;-0.74;100.00;100676.59;5032390;28;20620;-73
2023/01/27 01:18:06;;;;;;;15.07;13.47;;;;;;;-0.76;100.00;100671.44;5025759;28;20272;-74
2023/01/27 01:20:36;;;;;;;14.63;13.13;;;;;;;-0.74;100.00;100681.66;5022132;28;20219;-74
2023/01/27 01:23:02;;;;;;;15.07;13.53;;;;;;;-0.74;100.00;100674.03;5028517;28;20221;-73
2023/01/27 01:25:27;;;;;;;15.97;14.30;;;;;;;-0.74;100.00;100679.13;5024332;28;20775;-73
2023/01/27 01:27:52;;;;;;;15.93;14.27;;;;;;;-0.76;100.00;100681.63;5010004;28;20288;-73
2023/01/27 01:30:18;;;;;;;16.83;14.27;;;;;;;-0.77;100.00;100667.16;5027957;28;20195;-74
2023/01/27 01:32:43;;;;;;;18.57;15.60;;;;;;;-0.77;100.00;100673.13;5023547;28;20293;-73
2023/01/27 01:35:08;;;;;;;16.50;14.80;;;;;;;-0.80;100.00;100674.66;5013945;28;20663;-74
2023/01/27 01:37:34;;;;;;;18.07;16.03;;;;;;;-0.79;100.00;100676.38;5021752;28;20196;-73
2023/01/27 01:39:59;;;;;;;17.20;15.40;;;;;;;-0.80;100.00;100670.47;5027343;28;20458;-73
2023/01/27 01:42:24;;;;;;;17.03;15.20;;;;;;;-0.81;100.00;100665.28;5022430;28;20268;-74
2023/01/27 01:45:10;;;;;;;17.00;15.30;;;;;;;-0.80;100.00;100659.41;5022096;28;20187;-73
2023/01/27 01:47:36;;;;;;;17.07;15.23;;;;;;;-0.81;100.00;100650.03;5018048;28;20195;-73
2023/01/27 01:50:01;;;;;;;18.10;16.23;;;;;;;-0.80;100.00;100657.75;5019251;28;20188;-72
2023/01/27 01:52:27;;;;;;;17.47;15.67;;;;;;;-0.79;100.00;100656.06;5018314;28;20253;-74
2023/01/27 01:54:55;;;;;;;17.77;15.93;;;;;;;-0.77;100.00;100650.25;5013425;28;20198;-72
2023/01/27 01:57:26;;;;;;;17.30;15.50;;;;;;;-0.76;100.00;100651.13;5024175;28;20961;-72
2023/01/27 01:59:57;;;;;;;19.33;15.13;;;;;;;-0.76;100.00;100640.94;5021134;28;20271;-76
2023/01/27 02:02:23;;;;;;;17.07;15.27;;;;;;;-0.73;100.00;100645.28;5015131;28;20295;-73
2023/01/27 02:04:54;;;;;;;17.90;16.03;;;;;;;-0.72;100.00;100645.38;5014763;28;20207;-72
2023/01/27 02:07:34;;;;;;;19.27;16.97;;;;;;;-0.72;100.00;100640.28;5022168;28;20186;-74
2023/01/27 02:10:00;;;;;;;17.63;15.63;;;;;;;-0.76;100.00;100646.03;5034497;28;20192;-77
2023/01/27 02:12:26;;;;;;;17.73;15.57;;;;;;;-0.76;100.00;100648.56;5025284;28;20794;-74
2023/01/27 02:14:52;;;;;;;18.37;16.47;;;;;;;-0.78;100.00;100653.59;5028808;28;20204;-75
2023/01/27 02:17:17;;;;;;;18.10;15.93;;;;;;;-0.78;100.00;100645.97;5021043;28;20273;-72
2023/01/27 02:19:48;;;;;;;18.13;16.23;;;;;;;-0.81;100.00;100650.03;5021391;28;20238;-73
2023/01/27 02:22:23;;;;;;;18.03;16.13;;;;;;;-0.82;100.00;100654.28;5025551;28;20227;-74
2023/01/27 02:24:56;;;;;;;18.73;16.77;;;;;;;-0.85;100.00;100656.66;5024239;28;20718;-72
2023/01/27 02:27:21;;;;;;;19.50;17.40;;;;;;;-0.84;100.00;100653.31;5012179;28;20207;-76
2023/01/27 02:29:46;;;;;;;19.30;16.87;;;;;;;-0.85;100.00;100654.13;5018039;28;20201;-73
2023/01/27 02:32:24;;;;;;;20.57;16.97;;;;;;;-0.86;100.00;100654.06;5025087;28;20213;-75
2023/01/27 02:34:52;;;;;;;19.17;16.80;;;;;;;-0.89;100.00;100652.25;5015002;28;20199;-75
2023/01/27 02:37:19;;;;;;;21.80;17.17;;;;;;;-0.89;100.00;100653.94;5028503;28;20193;-72
2023/01/27 02:39:47;;;;;;;20.27;18.17;;;;;;;-0.87;100.00;100647.25;5023724;28;20201;-73
2023/01/27 02:42:14;;;;;;;20.90;17.87;;;;;;;-0.87;100.00;100648.09;5021104;28;20226;-73
2023/01/27 02:44:39;;;;;;;20.17;17.97;;;;;;;-0.89;100.00;100647.16;5011697;28;20201;-73
2023/01/27 02:47:05;;;;;;;20.87;18.63;;;;;;;-0.89;100.00;100647.16;5031229;28;20231;-74
2023/01/27 02:49:30;;;;;;;21.30;18.17;;;;;;;-0.86;100.00;100649.84;5022728;28;20223;-74
2023/01/27 02:51:55;;;;;;;21.53;18.97;;;;;;;-0.85;100.00;100643.97;5027287;28;20296;-72
2023/01/27 02:54:24;;;;;;;20.87;18.00;;;;;;;-0.86;100.00;100646.44;5036496;28;20245;-75
2023/01/27 02:56:49;;;;;;;22.67;19.10;;;;;;;-0.90;100.00;100642.03;5032847;28;20586;-73
2023/01/27 02:59:14;;;;;;;19.07;17.07;;;;;;;-0.90;100.00;100647.13;5023878;28;20210;-76
2023/01/27 03:01:39;;;;;;;20.13;17.93;;;;;;;-0.90;100.00;100644.56;5018613;28;20231;-73
2023/01/27 03:04:06;;;;;;;20.33;18.13;;;;;;;-0.89;100.00;100642.09;5041885;28;20184;-73
2023/01/27 03:06:32;;;;;;;20.20;18.00;;;;;;;-0.87;100.00;100643.03;5028444;28;20194;-72
2023/01/27 03:08:57;;;;;;;21.47;19.17;;;;;;;-0.89;100.00;100643.78;5039234;28;20218;-76
2023/01/27 03:14:07;;;;;;;21.80;19.57;;;;;;;-0.89;100.00;100642.09;5023508;28;20249;-74
2023/01/27 03:19:16;;;;;;;20.97;18.50;;;;;;;-0.90;100.00;100647.13;5018942;28;20209;-73
2023/01/27 03:21:44;;;;;;;22.73;19.97;;;;;;;-0.89;100.00;100643.78;5024452;28;20211;-75
2023/01/27 03:24:09;;;;;;;21.27;18.57;;;;;;;-0.89;100.00;100651.41;5020867;28;20196;-73
2023/01/27 03:26:37;;;;;;;20.63;18.53;;;;;;;-0.92;100.00;100647.06;5021039;28;20193;-73
2023/01/27 03:31:47;;;;;;;21.77;18.93;;;;;;;-0.88;100.00;100645.50;5015445;28;20787;-72
2023/01/27 03:34:12;;;;;;;20.40;18.23;;;;;;;-0.88;100.00;100642.97;5011905;28;20193;-73
2023/01/27 03:47:33;;;;;;;20.50;18.30;;;;;;;-0.84;100.00;100653.31;5016313;28;20244;-73
2023/01/27 03:49:59;;;;;;;23.60;20.37;;;;;;;-0.84;100.00;100655.88;5016019;28;20673;-73
2023/01/27 03:52:24;;;;;;;22.80;19.67;;;;;;;-0.82;100.00;100655.91;5029897;28;20215;-73
2023/01/27 03:54:49;;;;;;;22.47;20.03;;;;;;;-0.81;100.00;100655.13;5019993;28;20195;-71
2023/01/27 03:57:15;;;;;;;25.17;21.03;;;;;;;-0.82;100.00;100664.44;5027242;28;20230;-72
2023/01/27 03:59:40;;;;;;;22.77;19.83;;;;;;;-0.83;100.00;100659.28;5020680;28;20226;-73
2023/01/27 04:07:34;;;;;;;24.53;20.80;;;;;;;-0.81;100.00;100671.25;5018898;28;20219;-72
2023/01/27 04:10:00;;;;;;;25.37;21.07;;;;;;;-0.82;100.00;100672.06;5012681;28;20195;-72
2023/01/27 04:12:25;;;;;;;25.63;21.73;;;;;;;-0.81;100.00;100675.44;5017360;28;20770;-73
2023/01/27 04:14:51;;;;;;;29.03;21.87;;;;;;;-0.85;100.00;100674.47;5020618;28;20188;-73
2023/01/27 04:17:18;;;;;;;23.27;20.77;;;;;;;-0.85;100.00;100684.63;5012739;28;20205;-74
2023/01/27 04:19:44;;;;;;;22.90;20.40;;;;;;;-0.87;100.00;100673.50;5017367;28;20271;-71
2023/01/27 04:22:11;;;;;;;25.60;22.83;;;;;;;-0.87;100.00;100673.50;5025280;28;20229;-73
2023/01/27 04:24:37;;;;;;;25.63;21.37;;;;;;;-0.86;100.00;100676.94;5012145;28;20277;-72
2023/01/27 04:27:05;;;;;;;25.33;22.43;;;;;;;-0.86;100.00;100671.88;5025105;28;20845;-73
2023/01/27 04:29:33;;;;;;;24.93;21.43;;;;;;;-0.87;100.00;100673.50;5013909;28;20190;-72
2023/01/27 04:31:59;;;;;;;25.57;21.37;;;;;;;-0.88;100.00;100681.09;5013895;28;20287;-72
2023/01/27 04:34:26;;;;;;;23.67;20.70;;;;;;;-0.87;100.00;100676.06;5013418;28;20193;-74
2023/01/27 04:36:51;;;;;;;24.43;20.87;;;;;;;-0.88;100.00;100681.94;5023144;28;20190;-74
2023/01/27 04:39:17;;;;;;;24.27;20.80;;;;;;;-0.87;100.00;100690.44;5012715;28;20181;-74
2023/01/27 04:41:43;;;;;;;25.03;20.23;;;;;;;-0.87;100.00;100685.38;5021937;28;20217;-72
2023/01/27 04:44:09;;;;;;;24.50;21.30;;;;;;;-0.89;100.00;100684.44;5025127;28;20192;-73
2023/01/27 04:46:35;;;;;;;23.67;20.07;;;;;;;-0.87;100.00;100676.06;5025995;28;20195;-72
2023/01/27 04:49:01;;;;;;;22.30;19.97;;;;;;;-0.84;100.00;100677.88;5028654;28;20191;-73
2023/01/27 04:51:26;;;;;;;25.83;21.13;;;;;;;-0.85;100.00;100679.53;5018629;28;20664;-73
2023/01/27 04:53:52;;;;;;;24.13;20.97;;;;;;;-0.86;100.00;100679.50;5031276;28;20226;-73
2023/01/27 04:56:22;;;;;;;22.53;20.13;;;;;;;-0.87;100.00;100676.06;5020611;28;20193;-73
2023/01/27 04:58:47;;;;;;;23.00;19.97;;;;;;;-0.86;100.00;100680.34;5040901;28;20191;-72
2023/01/27 05:01:16;;;;;;;23.10;20.60;;;;;;;-0.86;100.00;100675.25;5026257;28;20206;-74
2023/01/27 05:03:41;;;;;;;25.23;20.20;;;;;;;-0.86;100.00;100676.94;5019653;28;20682;-73
2023/01/27 05:06:09;;;;;;;25.27;19.83;;;;;;;-0.86;100.00;100677.78;5040899;28;20187;-73
2023/01/27 05:08:34;;;;;;;23.43;20.93;;;;;;;-0.85;100.00;100682.06;5038208;28;20202;-74
2023/01/27 05:10:59;;;;;;;23.57;20.10;;;;;;;-0.85;100.00;100682.06;5028802;28;20192;-73
2023/01/27 05:13:25;;;;;;;24.30;20.53;;;;;;;-0.83;100.00;100677.09;5018052;28;20635;-72
2023/01/27 05:15:50;;;;;;;22.37;19.97;;;;;;;-0.83;100.00;100683.03;5023439;28;20202;-73
2023/01/27 05:18:15;;;;;;;21.33;18.80;;;;;;;-0.82;100.00;100694.94;5022462;28;20209;-72
2023/01/27 05:20:40;;;;;;;22.47;19.07;;;;;;;-0.80;100.00;100684.81;5020010;28;20309;-73
2023/01/27 05:25:50;;;;;;;23.90;20.30;;;;;;;-0.77;100.00;100679.88;5021170;28;20291;-72
2023/01/27 05:28:15;;;;;;;22.10;19.77;;;;;;;-0.78;100.00;100689.19;5035278;28;20464;-73
2023/01/27 05:30:41;;;;;;;24.13;20.80;;;;;;;-0.78;100.00;100691.72;5024369;28;20695;-75
2023/01/27 05:33:07;;;;;;;22.30;19.33;;;;;;;-0.78;100.00;100689.19;5023367;28;20220;-73
2023/01/27 05:35:33;;;;;;;27.13;21.50;;;;;;;-0.77;100.00;100684.97;5026758;28;20234;-72
2023/01/27 05:37:59;;;;;;;23.90;21.33;;;;;;;-0.73;100.00;100697.00;5039381;28;20216;-72
2023/01/27 05:40:24;;;;;;;26.83;22.70;;;;;;;-0.73;100.00;100696.13;5016726;28;20285;-72
2023/01/27 05:42:53;;;;;;;27.23;24.23;;;;;;;-0.74;100.00;100692.72;5018298;28;20207;-73
2023/01/27 05:45:18;;;;;;;24.73;22.10;;;;;;;-0.77;100.00;100698.56;5020116;28;20188;-72
2023/01/27 05:47:49;;;;;;;25.07;21.33;;;;;;;-0.78;100.00;100703.53;5029066;28;20203;-72
2023/01/27 05:50:14;;;;;;;24.57;21.67;;;;;;;-0.77;100.00;100710.38;5038373;28;20194;-76
2023/01/27 05:52:40;;;;;;;26.87;21.30;;;;;;;-0.80;100.00;100702.59;5034967;28;20200;-75
2023/01/27 05:55:05;;;;;;;27.73;21.87;;;;;;;-0.80;100.00;100710.22;5023602;28;20996;-73
2023/01/27 05:57:31;;;;;;;26.13;22.07;;;;;;;-0.76;100.00;100712.13;5031438;28;20737;-76
2023/01/27 05:59:56;;;;;;;26.13;22.87;;;;;;;-0.78;100.00;100711.16;5030059;28;20572;-73
2023/01/27 06:02:21;;;;;;;26.00;22.53;;;;;;;-0.78;100.00;100713.72;5040415;28;20307;-72
2023/01/27 06:04:47;;;;;;;26.70;23.10;;;;;;;-0.81;100.00;100711.03;5031284;28;20818;-72
2023/01/27 06:07:12;;;;;;;27.20;22.33;;;;;;;-0.82;100.00;100712.72;5042039;28;20185;-73
2023/01/27 06:09:37;;;;;;;23.23;19.87;;;;;;;-0.81;100.00;100698.31;5022776;28;20578;-74
2023/01/27 06:12:03;;;;;;;24.33;21.50;;;;;;;-0.82;100.00;100711.81;5029595;28;20210;-73
2023/01/27 06:14:28;;;;;;;25.13;21.67;;;;;;;-0.82;100.00;100706.75;5028524;28;20673;-73
2023/01/27 06:16:53;;;;;;;25.13;22.00;;;;;;;-0.79;100.00;100709.44;5027775;28;20901;-72
2023/01/27 06:19:18;;;;;;;28.73;24.03;;;;;;;-0.74;100.00;100702.00;5021021;28;20188;-72
2023/01/27 06:21:44;;;;;;;27.70;23.10;;;;;;;-0.71;100.00;100702.13;5010100;28;20214;-71
2023/01/27 06:24:09;;;;;;;26.37;23.23;;;;;;;-0.70;100.00;100709.84;5022423;28;20229;-72
2023/01/27 06:26:35;;;;;;;32.27;24.53;;;;;;;-0.72;100.00;100702.94;5027686;28;20655;-73
2023/01/27 06:29:00;;;;;;;27.00;23.13;;;;;;;-0.71;100.00;100710.66;5028321;28;20272;-72
2023/01/27 06:31:26;;;;;;;27.93;23.60;;;;;;;-0.67;100.00;100717.59;5043037;28;20198;-71
2023/01/27 06:33:51;;;;;;;27.03;22.93;;;;;;;-0.68;100.00;100718.38;5019717;28;20205;-72
2023/01/27 06:36:19;;;;;;;27.97;24.53;;;;;;;-0.70;100.00;100722.56;5044604;28;20187;-73
2023/01/27 06:38:45;;;;;;;30.70;24.00;;;;;;;-0.73;100.00;100724.06;5033047;28;20190;-73
2023/01/27 06:41:11;;;;;;;29.83;23.40;;;;;;;-0.75;100.00;100729.09;5018887;28;20201;-71
2023/01/27 06:43:36;;;;;;;31.13;24.40;;;;;;;-0.69;100.00;100739.56;5017490;28;20226;-73
2023/01/27 06:46:02;;;;;;;29.53;24.00;;;;;;;-0.69;100.00;100743.75;5020019;28;20190;-74
2023/01/27 06:48:27;;;;;;;30.00;23.80;;;;;;;-0.72;100.00;100747.03;5032032;28;20821;-72
2023/01/27 06:50:54;;;;;;;29.00;24.43;;;;;;;-0.75;100.00;100744.34;5010221;28;20250;-72
2023/01/27 06:53:20;;;;;;;30.10;23.57;;;;;;;-0.74;100.00;100741.00;5027291;28;20249;-72
2023/01/27 06:55:45;;;;;;;34.80;24.83;;;;;;;-0.72;100.00;100735.97;5030180;28;20613;-72
2023/01/27 06:58:13;;;;;;;31.27;24.87;;;;;;;-0.72;100.00;100725.81;5028851;28;20564;-73
2023/01/27 07:00:39;;;;;;;31.43;25.63;;;;;;;-0.71;100.00;100737.72;5042812;28;20205;-74
2023/01/27 07:03:05;;;;;;;32.67;25.50;;;;;;;-0.68;100.00;100745.50;5031810;28;20302;-73
2023/01/27 07:05:31;;;;;;;26.80;22.63;;;;;;;-0.68;100.00;100740.41;5023035;28;20214;-72
2023/01/27 07:07:57;;;;;;;29.07;22.87;;;;;;;-0.67;100.00;100744.69;5030740;28;20201;-74
2023/01/27 07:10:22;;;;;;;27.97;23.00;;;;;;;-0.67;100.00;100748.09;5027115;28;20213;-72
2023/01/27 07:12:47;;;;;;;30.20;24.97;;;;;;;-0.66;100.00;100744.75;5032066;28;20291;-73
2023/01/27 07:15:13;;;;;;;28.83;23.30;;;;;;;-0.66;100.00;100744.75;5031875;28;20713;-72
2023/01/27 07:17:39;;;;;;;29.27;22.67;;;;;;;-0.64;100.00;100749.91;5034434;28;20202;-72
2023/01/27 07:20:06;;;;;;;28.90;23.87;;;;;;;-0.63;100.00;100755.06;5023786;28;20188;-73
2023/01/27 07:22:33;;;;;;;28.33;22.57;;;;;;;-0.61;100.00;100762.78;5038819;28;20193;-73
2023/01/27 07:24:58;;;;;;;28.80;23.63;;;;;;;-0.59;100.00;100757.75;5041770;28;20544;-74
2023/01/27 07:27:24;;;;;;;25.90;23.00;;;;;;;-0.58;100.00;100765.41;5024401;28;20204;-72
2023/01/27 07:29:49;;;;;;;27.40;21.80;;;;;;;-0.56;100.00;100765.50;5036917;28;20192;-72
2023/01/27 07:32:15;;;;;;;29.07;23.27;;;;;;;-0.55;100.00;100772.34;5025114;28;20685;-73
2023/01/27 07:34:40;;;;;;;28.53;22.40;;;;;;;-0.54;100.00;100776.63;5027718;28;20184;-74
2023/01/27 07:37:06;;;;;;;30.17;23.73;;;;;;;-0.51;100.00;100776.72;5021649;28;20197;-73
2023/01/27 07:39:32;;;;;;;27.03;22.33;;;;;;;-0.49;100.00;100782.75;5022068;28;20206;-72
2023/01/27 07:42:00;;;;;;;30.10;23.83;;;;;;;-0.44;100.00;100788.03;5024210;28;20213;-72
2023/01/27 07:44:26;;;;;;;29.30;23.77;;;;;;;-0.46;100.00;100782.91;5018706;28;22197;-72
2023/01/27 07:46:51;;;;;;;29.67;24.23;;;;;;;-0.46;100.00;100798.16;5026510;28;20191;-72
2023/01/27 07:49:17;;;;;;;26.10;22.30;;;;;;;-0.49;100.00;100796.34;5020811;28;20233;-73
2023/01/27 07:51:42;;;;;;;26.10;21.80;;;;;;;-0.51;100.00;100797.97;5031294;28;20192;-74
2023/01/27 07:54:07;;;;;;;27.50;22.90;;;;;;;-0.49;100.00;100801.44;5033407;28;20726;-73
2023/01/27 07:56:35;;;;;;;27.57;22.93;;;;;;;-0.46;100.00;100803.25;5026301;28;20194;-73
2023/01/27 07:59:00;;;;;;;26.73;20.93;;;;;;;-0.44;100.00;100796.56;5026320;28;20194;-72
2023/01/27 08:01:26;;;;;;;26.53;21.00;;;;;;;-0.41;100.00;100803.44;5029019;28;20232;-75
2023/01/27 08:03:51;;;;;;;27.87;20.80;;;;;;;-0.38;100.00;100814.59;5023565;28;20183;-74
2023/01/27 08:06:16;;;;;;;28.90;22.30;;;;;;;-0.37;100.00;100805.31;5030332;28;20177;-73
2023/01/27 08:08:42;;;;;;;24.13;19.90;;;;;;;-0.36;100.00;100804.53;5038979;28;20167;-74
2023/01/27 08:11:09;;;;;;;24.27;20.00;;;;;;;-0.35;100.00;100809.66;5030323;28;20220;-73
2023/01/27 08:13:35;;;;;;;23.23;18.93;;;;;;;-0.31;100.00;100820.88;5022083;28;20217;-72
2023/01/27 08:16:07;;;;;;;23.43;18.83;;;;;;;-0.28;100.00;100815.03;5018508;28;20666;-73
2023/01/27 08:18:33;;;;;;;24.47;20.00;;;;;;;-0.24;100.00;100815.22;5028570;28;20183;-73
2023/01/27 08:21:00;;;;;;;22.23;18.43;;;;;;;-0.25;100.00;100808.41;5042890;28;20205;-73
2023/01/27 08:23:26;;;;;;;22.57;18.60;;;;;;;-0.24;100.00;100820.31;5037172;28;20202;-75
2023/01/27 08:25:52;;;;;;;22.70;18.80;;;;;;;-0.26;100.00;100814.28;5046834;28;20750;-72
2023/01/27 08:28:19;;;;;;;24.23;19.00;;;;;;;-0.25;100.00;100822.81;5037480;28;20179;-73
2023/01/27 08:30:45;;;;;;;21.87;16.97;;;;;;;-0.27;100.00;100821.84;5033402;28;20182;-73
2023/01/27 08:33:10;;;;;;;21.90;18.80;;;;;;;-0.26;100.00;100824.47;5027221;28;20213;-73
2023/01/27 08:35:37;;;;;;;23.87;18.70;;;;;;;-0.25;100.00;100822.81;5026550;28;20210;-76
2023/01/27 08:38:04;;;;;;;24.93;17.83;;;;;;;-0.24;100.00;100816.91;5042738;28;20206;-73
2023/01/27 08:40:29;;;;;;;21.37;16.97;;;;;;;-0.22;100.00;100817.81;5016437;28;20218;-73
2023/01/27 08:42:55;;;;;;;21.27;16.33;;;;;;;-0.24;100.00;100820.31;5022328;28;20206;-72
2023/01/27 08:45:20;;;;;;;20.20;14.07;;;;;;;-0.22;100.00;100816.16;5018489;28;20199;-74
2023/01/27 08:47:45;;;;;;;17.20;13.83;;;;;;;-0.26;100.00;100827.00;5026153;28;20197;-73
2023/01/27 08:50:11;;;;;;;19.10;14.43;;;;;;;-0.22;100.00;100828.00;5022042;28;20242;-73
2023/01/27 08:52:36;;;;;;;16.70;13.63;;;;;;;-0.19;100.00;100823.94;5017869;28;20207;-74
2023/01/27 08:55:02;;;;;;;16.60;13.30;;;;;;;-0.14;100.00;100829.22;5022733;28;20579;-73
2023/01/27 08:57:31;;;;;;;14.93;12.80;;;;;;;-0.09;100.00;100825.22;5022575;28;21866;-74
2023/01/27 08:59:56;;;;;;;14.03;11.70;;;;;;;-0.08;100.00;100820.97;5032943;28;20197;-73
2023/01/27 09:02:23;;;;;;;13.90;11.57;;;;;;;-0.03;100.00;100829.69;5038984;28;20623;-73
2023/01/27 09:04:49;;;;;;;14.00;11.83;;;;;;;0.04;100.00;100820.63;5032105;28;20786;-73
2023/01/27 09:07:15;;;;;;;13.30;10.63;;;;;;;0.10;100.00;100826.84;5029475;28;20686;-74
2023/01/27 09:09:40;;;;;;;12.93;11.20;;;;;;;0.12;100.00;100829.44;5028431;28;20194;-73
2023/01/27 09:12:05;;;;;;;12.80;10.43;;;;;;;0.20;100.00;100819.59;5029112;28;20206;-72
2023/01/27 09:14:31;;;;;;;12.30;10.70;;;;;;;0.31;100.00;100815.81;5044462;28;20193;-75
2023/01/27 09:16:56;;;;;;;11.40;10.00;;;;;;;0.41;100.00;100830.69;5016111;28;20187;-73
2023/01/27 09:19:21;;;;;;;11.40;9.93;;;;;;;0.45;100.00;100818.94;5020854;28;20180;-75
2023/01/27 09:21:47;;;;;;;12.13;10.20;;;;;;;0.51;99.77;100821.75;5027560;28;20328;-72
2023/01/27 09:24:16;;;;;;;11.33;9.80;;;;;;;0.59;100.00;100832.25;5031453;28;20198;-73
2023/01/27 09:26:42;;;;;;;12.00;9.67;;;;;;;0.67;99.46;100841.06;5023432;28;20240;-73
2023/01/27 09:29:07;;;;;;;13.97;10.10;;;;;;;0.69;98.50;100842.00;5031483;28;20662;-74
2023/01/27 09:31:32;;;;;;;10.37;9.27;;;;;;;0.78;98.49;100845.69;5039259;28;20192;-73
2023/01/27 09:33:58;;;;;;;10.57;9.47;;;;;;;0.81;98.05;100848.38;5043953;28;20191;-75
2023/01/27 09:36:23;;;;;;;13.07;9.23;;;;;;;0.79;97.41;100853.41;5045347;28;20205;-71
2023/01/27 09:39:03;;;;;;;9.07;8.23;;;;;;;0.83;97.03;100855.25;5059592;28;20195;-73
2023/01/27 09:41:55;;;;;;;9.23;8.00;;;;;;;0.80;96.49;100860.25;5025262;28;20231;-73
2023/01/27 09:44:50;;;;;;;9.27;7.47;;;;;;;0.68;96.05;100852.13;5025698;28;20246;-74
2023/01/27 09:47:31;;;;;;;9.67;8.67;;;;;;;0.68;96.69;100857.22;5006962;28;20438;-75
2023/01/27 09:50:15;;;;;;;9.73;8.73;;;;;;;0.70;96.93;100853.03;5033667;28;20299;-74
2023/01/27 09:52:49;;;;;;;9.23;8.17;;;;;;;0.78;97.43;100854.22;5027051;28;20211;-75
2023/01/27 09:55:46;;;;;;;10.93;9.83;;;;;;;0.89;97.13;100852.13;5022813;28;20196;-74
2023/01/27 09:58:40;;;;;;;11.90;9.37;;;;;;;1.02;96.42;100854.34;5016541;28;20196;-71
2023/01/27 10:01:32;;;;;;;10.50;8.70;;;;;;;1.08;95.37;100853.69;5033051;28;20207;-75
2023/01/27 10:04:25;;;;;;;8.87;7.67;;;;;;;1.11;95.20;100842.75;5030075;28;20191;-73
2023/01/27 10:07:15;;;;;;;8.57;7.67;;;;;;;1.23;95.14;100857.66;5021789;28;20270;-74
2023/01/27 10:10:05;;;;;;;9.20;8.13;;;;;;;1.26;95.11;100842.47;5020478;28;20687;-75
2023/01/27 10:12:40;;;;;;;9.97;7.57;;;;;;;1.14;94.53;100850.50;5029146;28;20688;-73
2023/01/27 10:15:19;;;;;;;8.83;7.50;;;;;;;1.12;94.31;100855.56;5014997;28;20188;-72
2023/01/27 10:17:59;;;;;;;8.77;7.87;;;;;;;1.01;93.96;100851.69;5022024;28;20198;-73
2023/01/27 10:20:34;;;;;;;9.03;7.63;;;;;;;0.98;93.55;100849.91;5019768;28;20184;-73
2023/01/27 10:23:21;;;;;;;9.17;7.23;;;;;;;0.99;94.58;100848.22;5029567;28;20207;-72
2023/01/27 10:26:09;;;;;;;10.13;7.90;;;;;;;1.06;94.61;100847.66;5028413;28;20202;-72
2023/01/27 10:28:36;;;;;;;8.37;7.50;;;;;;;1.04;94.91;100847.63;5038063;28;20358;-73
2023/01/27 10:31:16;;;;;;;9.13;7.87;;;;;;;1.08;94.77;100838.41;5024782;28;20218;-72
2023/01/27 10:33:52;;;;;;;10.00;7.73;;;;;;;1.03;94.23;100843.31;5021000;28;20199;-72
2023/01/27 10:36:54;;;;;;;7.87;6.83;;;;;;;0.98;93.78;100852.47;5030411;28;20714;-73
2023/01/27 10:39:35;;;;;;;7.80;6.47;;;;;;;0.93;93.61;100848.00;5009635;28;20761;-73
2023/01/27 10:42:37;;;;;;;8.10;7.30;;;;;;;1.03;94.59;100845.88;5031772;28;20586;-72
2023/01/27 10:45:17;;;;;;;8.37;7.57;;;;;;;1.12;94.37;100839.38;5026087;28;20191;-73
2023/01/27 10:47:54;;;;;;;7.27;6.53;;;;;;;1.18;94.11;100832.84;5037332;28;20286;-73
2023/01/27 10:50:31;;;;;;;9.53;7.50;;;;;;;1.25;93.82;100833.94;5023442;28;20917;-74
2023/01/27 10:53:00;;;;;;;7.83;6.87;;;;;;;1.25;93.41;100845.81;5020749;28;20302;-74
2023/01/27 10:55:37;;;;;;;9.33;7.00;;;;;;;1.16;92.10;100834.44;5033888;28;20192;-75
2023/01/27 10:58:10;;;;;;;7.17;6.23;;;;;;;1.19;92.12;100837.13;5040816;28;20186;-72
2023/01/27 11:00:43;;;;;;;7.60;6.33;;;;;;;1.13;92.06;100829.25;5034537;28;20203;-74
2023/01/27 11:03:27;;;;;;;8.20;6.63;;;;;;;1.26;92.73;100824.63;5042229;28;20598;-74
2023/01/27 11:05:58;;;;;;;7.90;6.53;;;;;;;1.29;92.65;100828.16;5033259;28;20182;-73
2023/01/27 11:08:28;;;;;;;7.27;6.57;;;;;;;1.44;92.50;100822.72;5035264;28;20195;-73
2023/01/27 11:13:42;;;;;;;6.47;5.77;;;;;;;1.34;91.55;100828.31;5013228;28;20665;-72
2023/01/27 11:16:16;;;;;;;6.57;5.87;;;;;;;1.37;91.72;100833.53;5029988;28;20199;-72
2023/01/27 11:18:44;;;;;;;7.10;6.37;;;;;;;1.41;91.12;100822.66;5018281;28;20190;-74
2023/01/27 11:21:17;;;;;;;6.60;5.90;;;;;;;1.47;91.16;100822.84;5035865;28;20209;-72
2023/01/27 11:23:47;;;;;;;6.37;5.70;;;;;;;1.56;91.02;100824.03;5021739;28;20235;-72
2023/01/27 11:26:33;;;;;;;6.67;6.07;;;;;;;1.73;90.95;100814.41;5040742;28;20183;-74
2023/01/27 11:29:13;;;;;;;7.00;6.23;;;;;;;1.84;89.89;100820.75;5023750;28;20194;-72
2023/01/27 11:31:54;;;;;;;6.30;5.70;;;;;;;1.87;89.50;100813.22;5022800;28;20244;-73
2023/01/27 11:34:34;;;;;;;6.30;5.70;;;;;;;1.90;89.06;100812.44;5015603;28;20199;-73
2023/01/27 11:37:08;;;;;;;5.80;5.17;;;;;;;1.92;88.86;100815.91;5013941;28;20996;-72
2023/01/27 11:39:34;;;;;;;6.27;5.67;;;;;;;1.82;88.44;100802.84;5034078;28;20290;-72
2023/01/27 11:42:00;;;;;;;6.03;5.17;;;;;;;1.78;88.57;100811.19;5016390;28;20304;-72
2023/01/27 11:44:32;;;;;;;6.10;5.57;;;;;;;1.72;89.10;100808.44;5031751;28;20188;-72
2023/01/27 11:46:58;;;;;;;6.30;5.70;;;;;;;1.77;89.31;100823.91;5030785;28;20273;-73
2023/01/27 11:49:50;;;;;;;6.90;5.97;;;;;;;1.67;89.36;100820.16;5048249;28;20578;-75
2023/01/27 11:52:20;;;;;;;6.47;5.70;;;;;;;1.62;90.77;100809.81;5030071;28;21002;-73